createdAt,value
2023-09-11T00:00:50.265Z,21.16
2023-09-11T00:03:17.396Z,21.16
2023-09-11T00:05:54.870Z,21.02
2023-09-11T00:08:31.130Z,20.84
2023-09-11T00:11:01.205Z,20.87
2023-09-11T00:13:29.409Z,20.95
2023-09-11T00:15:56.589Z,20.98
2023-09-11T00:18:25.263Z,20.91
2023-09-11T00:20:52.842Z,20.88
2023-09-11T00:23:19.755Z,20.92
2023-09-11T00:25:46.693Z,20.74
2023-09-11T00:28:13.674Z,20.74
2023-09-11T00:30:40.548Z,20.68
2023-09-11T00:33:07.510Z,20.52
2023-09-11T00:35:34.571Z,20.46
2023-09-11T00:38:01.390Z,20.42
2023-09-11T00:40:28.255Z,20.43
2023-09-11T00:42:55.253Z,20.49
2023-09-11T00:45:22.047Z,20.50
2023-09-11T00:47:49.216Z,20.44
2023-09-11T00:50:18.625Z,20.39
2023-09-11T00:52:47.694Z,20.43
2023-09-11T00:55:14.685Z,20.37
2023-09-11T00:57:43.747Z,20.42
2023-09-11T01:00:13.194Z,20.35
2023-09-11T01:02:40.728Z,20.40
2023-09-11T01:05:09.912Z,20.43
2023-09-11T01:07:37.333Z,20.38
2023-09-11T01:10:07.918Z,20.31
2023-09-11T01:12:38.960Z,20.14
2023-09-11T01:15:09.261Z,20.14
2023-09-11T01:18:01.087Z,20.04
2023-09-11T01:20:58.358Z,19.93
2023-09-11T01:24:32.332Z,20.01
2023-09-11T01:27:17.436Z,20.02
2023-09-11T01:29:45.887Z,19.91
2023-09-11T01:32:14.514Z,19.81
2023-09-11T01:34:41.629Z,19.75
2023-09-11T01:37:08.436Z,19.71
2023-09-11T01:39:35.427Z,19.64
2023-09-11T01:42:10.741Z,19.42
2023-09-11T01:44:47.714Z,19.54
2023-09-11T01:47:21.717Z,19.47
2023-09-11T01:49:50.208Z,19.38
2023-09-11T01:52:18.311Z,19.26
2023-09-11T01:54:45.537Z,19.26
2023-09-11T01:57:12.547Z,19.26
2023-09-11T01:59:39.598Z,19.19
2023-09-11T02:02:07.673Z,19.14
2023-09-11T02:04:34.771Z,19.05
2023-09-11T02:07:01.552Z,19.05
2023-09-11T02:09:28.434Z,19.21
2023-09-11T02:11:55.322Z,19.32
2023-09-11T02:14:22.153Z,19.37
2023-09-11T02:16:49.035Z,19.31
2023-09-11T02:19:15.873Z,19.21
2023-09-11T02:21:42.756Z,19.23
2023-09-11T02:24:09.624Z,19.13
2023-09-11T02:26:36.585Z,19.13
2023-09-11T02:29:03.600Z,19.14
2023-09-11T02:31:30.543Z,19.21
2023-09-11T02:33:57.368Z,19.11
2023-09-11T02:36:24.262Z,19.08
2023-09-11T02:38:51.070Z,19.07
2023-09-11T02:41:17.897Z,19.10
2023-09-11T02:43:44.731Z,19.03
2023-09-11T02:46:11.580Z,19.03
2023-09-11T02:48:47.379Z,19.08
2023-09-11T02:51:14.923Z,19.04
2023-09-11T02:53:42.089Z,18.94
2023-09-11T02:56:09.003Z,18.93
2023-09-11T02:58:35.908Z,18.90
2023-09-11T03:01:06.691Z,18.97
2023-09-11T03:03:33.705Z,18.88
2023-09-11T03:06:03.285Z,18.80
2023-09-11T03:08:30.588Z,18.70
2023-09-11T03:11:10.205Z,18.58
2023-09-11T03:13:40.713Z,18.59
2023-09-11T03:16:16.070Z,18.59
2023-09-11T03:18:43.883Z,18.56
2023-09-11T03:21:11.033Z,18.46
2023-09-11T03:23:38.258Z,18.51
2023-09-11T03:26:16.668Z,18.48
2023-09-11T03:28:50.699Z,18.47
2023-09-11T03:31:18.081Z,18.41
2023-09-11T03:33:46.768Z,18.45
2023-09-11T03:36:18.121Z,18.53
2023-09-11T03:38:45.859Z,18.54
2023-09-11T03:41:12.939Z,18.41
2023-09-11T03:43:39.948Z,18.46
2023-09-11T03:46:06.882Z,18.50
2023-09-11T03:48:33.912Z,18.44
2023-09-11T03:51:00.849Z,18.34
2023-09-11T03:53:27.729Z,18.30
2023-09-11T03:55:55.168Z,18.26
2023-09-11T03:58:22.011Z,18.31
2023-09-11T04:00:48.870Z,18.32
2023-09-11T04:03:15.835Z,18.36
2023-09-11T04:05:43.018Z,18.27
2023-09-11T04:08:10.044Z,18.34
2023-09-11T04:10:36.914Z,18.27
2023-09-11T04:13:03.916Z,18.29
2023-09-11T04:15:30.910Z,18.20
2023-09-11T04:17:58.518Z,18.16
2023-09-11T04:20:25.704Z,18.21
2023-09-11T04:22:52.551Z,18.31
2023-09-11T04:25:19.450Z,18.32
2023-09-11T04:27:46.284Z,18.31
2023-09-11T04:30:13.755Z,18.29
2023-09-11T04:32:40.994Z,18.26
2023-09-11T04:35:09.876Z,18.21
2023-09-11T04:37:37.910Z,18.23
2023-09-11T04:40:08.566Z,18.31
2023-09-11T04:42:38.306Z,18.25
2023-09-11T04:45:06.496Z,18.26
2023-09-11T04:47:33.569Z,18.24
2023-09-11T04:50:00.650Z,18.18
2023-09-11T04:52:27.558Z,18.07
2023-09-11T04:54:55.186Z,18.09
2023-09-11T04:57:22.093Z,18.14
2023-09-11T04:59:48.860Z,18.12
2023-09-11T05:02:16.113Z,18.17
2023-09-11T05:04:43.370Z,18.20
2023-09-11T05:07:10.248Z,18.13
2023-09-11T05:09:39.369Z,18.14
2023-09-11T05:12:06.876Z,18.11
2023-09-11T05:14:33.901Z,17.97
2023-09-11T05:17:00.784Z,18.00
2023-09-11T05:19:27.730Z,18.07
2023-09-11T05:21:54.752Z,18.15
2023-09-11T05:24:21.704Z,18.07
2023-09-11T05:26:48.591Z,18.00
2023-09-11T05:29:15.420Z,17.95
2023-09-11T05:31:42.686Z,18.03
2023-09-11T05:34:09.823Z,18.10
2023-09-11T05:36:36.724Z,18.05
2023-09-11T05:39:04.185Z,18.06
2023-09-11T05:41:31.182Z,18.04
2023-09-11T05:43:58.148Z,18.04
2023-09-11T05:46:25.208Z,18.09
2023-09-11T05:48:52.339Z,18.16
2023-09-11T05:51:19.397Z,18.20
2023-09-11T05:53:46.286Z,18.22
2023-09-11T05:56:13.475Z,18.29
2023-09-11T05:58:40.733Z,18.29
2023-09-11T06:01:07.941Z,18.30
2023-09-11T06:03:34.956Z,18.37
2023-09-11T06:06:02.137Z,18.37
2023-09-11T06:08:29.297Z,18.40
2023-09-11T06:10:56.399Z,18.40
2023-09-11T06:13:23.296Z,18.37
2023-09-11T06:15:50.632Z,18.47
2023-09-11T06:18:17.617Z,18.58
2023-09-11T06:20:44.948Z,18.65
2023-09-11T06:23:14.197Z,18.69
2023-09-11T06:25:41.118Z,18.72
2023-09-11T06:28:07.953Z,18.79
2023-09-11T06:30:35.315Z,18.89
2023-09-11T06:33:02.420Z,18.95
2023-09-11T06:35:29.592Z,19.00
2023-09-11T06:37:56.434Z,19.01
2023-09-11T06:40:23.569Z,19.04
2023-09-11T06:42:50.469Z,19.07
2023-09-11T06:45:17.399Z,19.14
2023-09-11T06:47:44.598Z,19.26
2023-09-11T06:50:12.606Z,19.32
2023-09-11T06:52:42.000Z,19.35
2023-09-11T06:55:09.330Z,19.42
2023-09-11T06:57:38.584Z,19.49
2023-09-11T07:00:27.773Z,19.57
2023-09-11T07:02:55.720Z,19.57
2023-09-11T07:05:23.683Z,19.63
2023-09-11T07:07:50.531Z,19.76
2023-09-11T07:10:34.118Z,19.88
2023-09-11T07:13:05.545Z,19.98
2023-09-11T07:15:32.524Z,20.07
2023-09-11T07:17:59.458Z,20.14
2023-09-11T07:20:26.526Z,20.27
2023-09-11T07:22:53.361Z,20.33
2023-09-11T07:25:24.184Z,20.38
2023-09-11T07:27:54.403Z,20.45
2023-09-11T07:30:21.878Z,20.59
2023-09-11T07:32:48.780Z,20.72
2023-09-11T07:35:15.829Z,20.85
2023-09-11T07:37:42.722Z,20.98
2023-09-11T07:40:10.025Z,21.11
2023-09-11T07:42:37.649Z,21.24
2023-09-11T07:45:05.761Z,21.39
2023-09-11T07:47:32.810Z,21.58
2023-09-11T07:49:59.730Z,21.80
2023-09-11T07:52:26.552Z,22.08
2023-09-11T07:54:53.431Z,22.30
2023-09-11T07:57:20.338Z,22.51
2023-09-11T07:59:47.342Z,22.73
2023-09-11T08:02:14.231Z,22.99
2023-09-11T08:04:41.200Z,23.26
2023-09-11T08:07:08.186Z,23.57
2023-09-11T08:09:35.241Z,23.88
2023-09-11T08:12:02.296Z,24.18
2023-09-11T08:14:29.265Z,24.43
2023-09-11T08:16:56.387Z,24.75
2023-09-11T08:19:23.304Z,24.93
2023-09-11T08:21:50.391Z,25.22
2023-09-11T08:24:17.230Z,25.36
2023-09-11T08:26:44.055Z,25.51
2023-09-11T08:29:13.203Z,25.77
2023-09-11T08:31:40.147Z,26.03
2023-09-11T08:34:07.393Z,26.25
2023-09-11T08:36:34.730Z,26.49
2023-09-11T08:39:01.737Z,26.81
2023-09-11T08:41:30.513Z,27.09
2023-09-11T08:43:57.660Z,27.29
2023-09-11T08:46:25.239Z,27.43
2023-09-11T08:48:59.070Z,27.73
2023-09-11T08:51:52.690Z,27.96
2023-09-11T08:54:21.778Z,28.00
2023-09-11T08:56:49.021Z,28.05
2023-09-11T08:59:22.878Z,28.33
2023-09-11T09:01:52.052Z,28.53
2023-09-11T09:04:20.935Z,28.65
2023-09-11T09:06:49.476Z,28.67
2023-09-11T09:09:19.007Z,28.80
2023-09-11T09:11:49.761Z,28.91
2023-09-11T09:14:20.587Z,29.06
2023-09-11T09:16:48.618Z,29.10
2023-09-11T09:19:15.553Z,29.33
2023-09-11T09:22:07.319Z,29.50
2023-09-11T09:24:35.813Z,29.64
2023-09-11T09:27:06.500Z,29.74
2023-09-11T09:29:39.355Z,29.69
2023-09-11T09:32:08.915Z,29.87
2023-09-11T09:34:39.062Z,30.08
2023-09-11T09:37:06.015Z,30.48
2023-09-11T09:39:34.652Z,30.56
2023-09-11T09:42:05.334Z,30.71
2023-09-11T09:44:34.408Z,30.87
2023-09-11T09:47:17.382Z,30.89
2023-09-11T09:49:56.560Z,30.82
2023-09-11T09:52:27.734Z,30.92
2023-09-11T09:55:03.297Z,31.17
2023-09-11T09:57:30.533Z,31.34
2023-09-11T10:00:00.663Z,31.46
2023-09-11T10:02:31.478Z,31.43
2023-09-11T10:05:04.263Z,31.44
2023-09-11T10:07:45.559Z,31.45
2023-09-11T10:10:22.419Z,31.55
2023-09-11T10:13:01.477Z,31.41
2023-09-11T10:15:30.971Z,31.59
2023-09-11T10:17:59.354Z,31.65
2023-09-11T10:20:27.691Z,31.85
2023-09-11T10:22:57.648Z,31.97
2023-09-11T10:25:27.839Z,32.07
2023-09-11T10:28:03.301Z,32.19
2023-09-11T10:30:45.608Z,32.29
2023-09-11T10:33:27.815Z,32.36
2023-09-11T10:36:06.013Z,32.42
2023-09-11T10:38:35.257Z,32.46
2023-09-11T10:41:07.265Z,32.60
2023-09-11T10:43:34.256Z,32.71
2023-09-11T10:46:22.339Z,33.16
2023-09-11T10:48:53.645Z,33.27
2023-09-11T10:51:21.028Z,33.27
2023-09-11T10:53:52.181Z,33.26
2023-09-11T10:56:19.337Z,33.35
2023-09-11T10:58:46.759Z,33.62
2023-09-11T11:01:18.758Z,33.83
2023-09-11T11:03:47.309Z,33.48
2023-09-11T11:06:19.378Z,33.39
2023-09-11T11:08:47.751Z,33.49
2023-09-11T11:11:26.909Z,33.87
2023-09-11T11:14:22.613Z,34.06
2023-09-11T11:17:07.219Z,34.16
2023-09-11T11:19:59.321Z,34.45
2023-09-11T11:22:42.237Z,34.86
2023-09-11T11:25:12.177Z,35.10
2023-09-11T11:27:43.011Z,35.61
2023-09-11T11:30:10.572Z,36.06
2023-09-11T11:32:42.563Z,36.28
2023-09-11T11:35:10.910Z,36.54
2023-09-11T11:37:46.101Z,36.75
2023-09-11T11:40:14.744Z,36.94
2023-09-11T11:42:42.825Z,36.99
2023-09-11T11:45:10.592Z,37.04
2023-09-11T11:47:37.825Z,37.26
2023-09-11T11:50:12.611Z,37.50
2023-09-11T11:52:44.381Z,37.61
2023-09-11T11:55:22.569Z,37.83
2023-09-11T11:57:53.841Z,37.89
2023-09-11T12:00:21.711Z,38.13
2023-09-11T12:02:48.813Z,38.19
2023-09-11T12:05:17.446Z,37.89
2023-09-11T12:07:44.608Z,37.93
2023-09-11T12:10:12.205Z,38.36
2023-09-11T12:12:43.220Z,38.46
2023-09-11T12:15:12.276Z,38.62
2023-09-11T12:17:48.625Z,38.83
2023-09-11T12:20:23.180Z,38.86
2023-09-11T12:22:50.634Z,38.72
2023-09-11T12:25:19.420Z,38.81
2023-09-11T12:27:47.397Z,38.80
2023-09-11T12:30:15.467Z,38.79
2023-09-11T12:32:42.597Z,38.87
2023-09-11T12:35:09.642Z,39.12
2023-09-11T12:37:41.082Z,39.29
2023-09-11T12:40:11.467Z,39.49
2023-09-11T12:42:40.856Z,39.31
2023-09-11T12:45:10.292Z,39.16
2023-09-11T12:47:37.842Z,39.47
2023-09-11T12:50:06.841Z,39.40
2023-09-11T12:52:34.327Z,39.24
2023-09-11T12:55:01.402Z,38.82
2023-09-11T12:57:28.246Z,38.42
2023-09-11T12:59:55.417Z,38.44
2023-09-11T13:02:22.387Z,38.73
2023-09-11T13:04:49.685Z,39.18
2023-09-11T13:07:18.440Z,39.32
2023-09-11T13:09:45.568Z,39.30
2023-09-11T13:12:12.511Z,39.28
2023-09-11T13:14:39.610Z,39.40
2023-09-11T13:17:06.609Z,39.59
2023-09-11T13:19:33.516Z,39.57
2023-09-11T13:22:00.657Z,39.72
2023-09-11T13:24:27.644Z,39.86
2023-09-11T13:26:54.806Z,39.67
2023-09-11T13:29:21.736Z,39.86
2023-09-11T13:31:48.519Z,39.83
2023-09-11T13:34:16.435Z,39.59
2023-09-11T13:36:43.388Z,39.27
2023-09-11T13:39:12.479Z,39.20
2023-09-11T13:41:39.342Z,39.15
2023-09-11T13:44:06.307Z,39.12
2023-09-11T13:46:33.268Z,39.25
2023-09-11T13:49:00.125Z,39.17
2023-09-11T13:51:28.188Z,38.99
2023-09-11T13:53:55.822Z,38.69
2023-09-11T13:56:23.718Z,38.36
2023-09-11T13:58:50.551Z,38.42
2023-09-11T14:01:17.665Z,38.74
2023-09-11T14:03:44.784Z,38.49
2023-09-11T14:06:13.322Z,38.24
2023-09-11T14:08:40.560Z,38.30
2023-09-11T14:11:07.939Z,38.28
2023-09-11T14:13:36.505Z,38.32
2023-09-11T14:16:04.840Z,38.23
2023-09-11T14:18:32.352Z,38.04
2023-09-11T14:20:59.473Z,38.03
2023-09-11T14:23:26.320Z,37.89
2023-09-11T14:25:56.083Z,37.47
2023-09-11T14:28:23.296Z,37.44
2023-09-11T14:30:50.249Z,37.55
2023-09-11T14:33:17.750Z,37.24
2023-09-11T14:35:44.823Z,37.11
2023-09-11T14:38:11.760Z,36.94
2023-09-11T14:40:38.541Z,36.78
2023-09-11T14:43:05.401Z,36.67
2023-09-11T14:45:32.294Z,36.43
2023-09-11T14:47:59.461Z,36.22
2023-09-11T14:50:26.440Z,35.99
2023-09-11T14:52:55.691Z,35.43
2023-09-11T14:55:22.686Z,34.72
2023-09-11T14:57:49.568Z,34.16
2023-09-11T15:00:16.933Z,33.79
2023-09-11T15:02:43.941Z,33.39
2023-09-11T15:05:11.270Z,33.14
2023-09-11T15:07:38.517Z,33.04
2023-09-11T15:10:05.669Z,32.88
2023-09-11T15:12:34.965Z,32.68
2023-09-11T15:15:02.386Z,32.53
2023-09-11T15:17:29.529Z,32.49
2023-09-11T15:19:56.425Z,32.35
2023-09-11T15:22:23.449Z,32.32
2023-09-11T15:24:50.437Z,32.27
2023-09-11T15:27:17.350Z,32.20
2023-09-11T15:29:44.389Z,32.06
2023-09-11T15:32:13.138Z,31.94
2023-09-11T15:34:42.236Z,31.91
2023-09-11T15:37:16.685Z,31.81
2023-09-11T15:39:44.471Z,31.74
2023-09-11T15:42:11.985Z,31.44
2023-09-11T15:44:39.208Z,31.21
2023-09-11T15:47:06.882Z,31.17
2023-09-11T15:49:33.895Z,31.13
2023-09-11T15:52:04.586Z,31.22
2023-09-11T15:54:33.873Z,31.18
2023-09-11T15:57:00.768Z,31.17
2023-09-11T15:59:27.953Z,31.18
2023-09-11T16:01:54.878Z,31.15
2023-09-11T16:04:21.940Z,31.13
2023-09-11T16:06:49.131Z,31.17
2023-09-11T16:09:16.137Z,31.10
2023-09-11T16:11:42.956Z,31.10
2023-09-11T16:14:09.929Z,31.04
2023-09-11T16:16:40.955Z,30.95
2023-09-11T16:19:07.996Z,30.87
2023-09-11T16:21:40.264Z,30.82
2023-09-11T16:24:10.744Z,30.72
2023-09-11T16:26:37.775Z,30.59
2023-09-11T16:29:04.667Z,30.44
2023-09-11T16:31:31.759Z,30.48
2023-09-11T16:33:59.139Z,30.46
2023-09-11T16:36:26.535Z,30.37
2023-09-11T16:38:53.845Z,30.28
2023-09-11T16:41:21.037Z,30.19
2023-09-11T16:43:48.001Z,30.12
2023-09-11T16:46:15.041Z,30.08
2023-09-11T16:48:42.388Z,30.07
2023-09-11T16:51:09.744Z,29.99
2023-09-11T16:53:37.481Z,29.94
2023-09-11T16:56:06.092Z,29.91
2023-09-11T16:58:33.468Z,29.78
2023-09-11T17:01:08.312Z,29.67
2023-09-11T17:03:35.583Z,29.56
2023-09-11T17:06:04.619Z,29.53
2023-09-11T17:08:31.595Z,29.46
2023-09-11T17:10:59.606Z,29.31
2023-09-11T17:13:27.286Z,29.19
2023-09-11T17:15:54.687Z,28.99
2023-09-11T17:18:21.781Z,28.91
2023-09-11T17:20:51.648Z,28.85
2023-09-11T17:23:18.931Z,28.84
2023-09-11T17:25:46.401Z,28.84
2023-09-11T17:28:13.540Z,28.79
2023-09-11T17:30:40.590Z,28.82
2023-09-11T17:33:10.118Z,28.73
2023-09-11T17:35:39.520Z,28.65
2023-09-11T17:38:07.944Z,28.48
2023-09-11T17:40:35.294Z,28.30
2023-09-11T17:43:02.240Z,28.04
2023-09-11T17:45:30.741Z,27.81
2023-09-11T17:47:58.167Z,27.72
2023-09-11T17:50:25.136Z,27.60
2023-09-11T17:52:52.018Z,27.42
2023-09-11T17:55:18.977Z,27.49
2023-09-11T17:57:46.545Z,27.49
2023-09-11T18:00:14.978Z,27.53
2023-09-11T18:02:46.519Z,27.44
2023-09-11T18:05:13.938Z,27.26
2023-09-11T18:07:44.042Z,27.05
2023-09-11T18:10:11.576Z,27.06
2023-09-11T18:12:38.397Z,27.13
2023-09-11T18:15:05.850Z,27.07
2023-09-11T18:17:32.827Z,26.89
2023-09-11T18:19:59.969Z,26.74
2023-09-11T18:22:27.075Z,26.69
2023-09-11T18:24:54.104Z,26.65
2023-09-11T18:27:21.381Z,26.57
2023-09-11T18:29:48.533Z,26.53
2023-09-11T18:32:15.517Z,26.43
2023-09-11T18:34:42.489Z,26.33
2023-09-11T18:37:09.764Z,26.22
2023-09-11T18:39:37.140Z,26.11
2023-09-11T18:42:04.848Z,26.03
2023-09-11T18:44:32.017Z,25.83
2023-09-11T18:46:59.047Z,25.69
2023-09-11T18:49:28.356Z,25.61
2023-09-11T18:51:56.899Z,25.55
2023-09-11T18:54:26.057Z,25.53
2023-09-11T18:56:55.327Z,25.53
2023-09-11T18:59:22.347Z,25.37
2023-09-11T19:01:49.706Z,25.31
2023-09-11T19:04:18.144Z,25.37
2023-09-11T19:06:45.645Z,25.35
2023-09-11T19:09:12.724Z,25.17
2023-09-11T19:11:39.897Z,25.01
2023-09-11T19:14:09.709Z,25.03
2023-09-11T19:16:36.562Z,25.06
2023-09-11T19:19:03.848Z,24.97
2023-09-11T19:21:31.558Z,24.92
2023-09-11T19:23:58.402Z,24.90
2023-09-11T19:26:25.357Z,24.94
2023-09-11T19:28:53.449Z,24.97
2023-09-11T19:31:22.549Z,24.79
2023-09-11T19:33:50.551Z,24.73
2023-09-11T19:36:17.647Z,24.70
2023-09-11T19:38:47.219Z,24.56
2023-09-11T19:41:14.132Z,24.46
2023-09-11T19:43:41.399Z,24.27
2023-09-11T19:46:08.874Z,24.21
2023-09-11T19:48:36.978Z,24.34
2023-09-11T19:51:05.176Z,24.31
2023-09-11T19:53:32.626Z,24.28
2023-09-11T19:56:00.447Z,24.26
2023-09-11T19:58:29.355Z,24.19
2023-09-11T20:00:56.873Z,24.15
2023-09-11T20:03:25.766Z,24.12
2023-09-11T20:05:56.506Z,24.18
2023-09-11T20:08:23.649Z,24.12
2023-09-11T20:10:51.041Z,24.11
2023-09-11T20:13:19.105Z,24.08
2023-09-11T20:15:46.276Z,23.95
2023-09-11T20:18:13.311Z,23.76
2023-09-11T20:20:40.287Z,23.76
2023-09-11T20:23:07.696Z,23.75
2023-09-11T20:25:35.402Z,23.78
2023-09-11T20:28:02.684Z,23.72
2023-09-11T20:30:29.691Z,23.72
2023-09-11T20:32:56.728Z,23.56
2023-09-11T20:35:23.641Z,23.50
2023-09-11T20:37:50.729Z,23.45
2023-09-11T20:40:17.812Z,23.43
2023-09-11T20:42:44.714Z,23.44
2023-09-11T20:45:11.884Z,23.45
2023-09-11T20:47:39.052Z,23.36
2023-09-11T20:50:08.466Z,23.36
2023-09-11T20:52:36.668Z,23.42
2023-09-11T20:55:05.809Z,23.35
2023-09-11T20:57:33.173Z,23.27
2023-09-11T21:00:00.376Z,23.21
2023-09-11T21:02:27.316Z,23.17
2023-09-11T21:04:56.441Z,23.07
2023-09-11T21:07:23.699Z,23.02
2023-09-11T21:09:51.802Z,23.08
2023-09-11T21:12:19.253Z,23.01
2023-09-11T21:14:46.219Z,22.88
2023-09-11T21:17:13.071Z,22.90
2023-09-11T21:19:39.865Z,22.87
2023-09-11T21:22:06.868Z,22.84
2023-09-11T21:24:33.746Z,22.80
2023-09-11T21:27:00.728Z,22.77
2023-09-11T21:29:27.656Z,22.82
2023-09-11T21:31:55.316Z,22.81
2023-09-11T21:34:22.152Z,22.85
2023-09-11T21:36:49.165Z,22.71
2023-09-11T21:39:16.884Z,22.64
2023-09-11T21:41:44.062Z,22.72
2023-09-11T21:44:10.875Z,22.74
2023-09-11T21:46:37.778Z,22.59
2023-09-11T21:49:05.204Z,22.46
2023-09-11T21:51:32.354Z,22.35
2023-09-11T21:54:13.473Z,22.42
2023-09-11T21:56:42.566Z,22.49
2023-09-11T21:59:09.591Z,22.34
2023-09-11T22:01:37.361Z,22.42
2023-09-11T22:04:04.989Z,22.44
2023-09-11T22:06:32.158Z,22.47
2023-09-11T22:08:59.612Z,22.46
2023-09-11T22:11:26.695Z,22.44
2023-09-11T22:13:53.637Z,22.39
2023-09-11T22:16:20.908Z,22.34
2023-09-11T22:18:47.957Z,22.35
2023-09-11T22:21:15.038Z,22.30
2023-09-11T22:23:42.196Z,22.32
2023-09-11T22:26:09.278Z,22.35
2023-09-11T22:28:36.690Z,22.31
2023-09-11T22:31:03.638Z,22.31
2023-09-11T22:33:30.627Z,22.29
2023-09-11T22:35:57.561Z,22.29
2023-09-11T22:38:27.508Z,22.23
2023-09-11T22:40:55.414Z,22.08
2023-09-11T22:43:22.658Z,22.08
2023-09-11T22:45:49.503Z,21.98
2023-09-11T22:48:16.354Z,21.96
2023-09-11T22:50:43.293Z,22.03
2023-09-11T22:53:10.587Z,22.13
2023-09-11T22:55:41.299Z,22.16
2023-09-11T22:58:09.824Z,22.15
2023-09-11T23:00:41.112Z,22.04
2023-09-11T23:03:09.951Z,21.96
2023-09-11T23:05:38.845Z,21.99
2023-09-11T23:08:06.240Z,22.04
2023-09-11T23:10:33.520Z,22.02
2023-09-11T23:13:00.539Z,22.01
2023-09-11T23:15:27.578Z,22.00
2023-09-11T23:17:54.892Z,21.99
2023-09-11T23:20:21.984Z,21.90
2023-09-11T23:22:49.008Z,21.89
2023-09-11T23:25:15.873Z,21.81
2023-09-11T23:27:42.836Z,21.75
2023-09-11T23:30:10.953Z,21.73
2023-09-11T23:32:38.530Z,21.69
2023-09-11T23:35:06.217Z,21.58
2023-09-11T23:37:33.210Z,21.59
2023-09-11T23:40:00.114Z,21.73
2023-09-11T23:42:27.118Z,21.72
2023-09-11T23:44:54.037Z,21.61
2023-09-11T23:47:20.878Z,21.45
2023-09-11T23:49:47.848Z,21.36
2023-09-11T23:52:25.652Z,21.38
2023-09-11T23:54:55.349Z,21.30
2023-09-11T23:57:22.376Z,21.35
2023-09-11T23:59:49.459Z,21.28
